createdAt,value
2019-03-26T00:02:55.178Z,60.00
2019-03-26T00:12:57.658Z,59.70
2019-03-26T00:23:00.391Z,59.60
2019-03-26T00:33:03.396Z,59.20
2019-03-26T00:43:05.962Z,59.00
2019-03-26T00:53:08.906Z,59.00
2019-03-26T01:03:11.975Z,59.20
2019-03-26T01:13:14.811Z,58.90
2019-03-26T01:23:17.335Z,58.70
2019-03-26T01:33:19.998Z,57.80
2019-03-26T01:43:22.902Z,57.30
2019-03-26T01:53:25.567Z,56.20
2019-03-26T02:03:28.034Z,55.60
2019-03-26T02:13:30.616Z,55.60
2019-03-26T02:23:33.369Z,55.70
2019-03-26T02:33:36.240Z,55.50
2019-03-26T02:43:39.895Z,54.60
2019-03-26T02:53:44.116Z,54.40
2019-03-26T03:03:46.719Z,54.40
2019-03-26T03:13:49.367Z,54.20
2019-03-26T03:23:52.745Z,54.30
2019-03-26T03:33:56.784Z,54.80
2019-03-26T03:43:59.651Z,55.40
2019-03-26T03:54:02.994Z,55.50
2019-03-26T04:04:05.798Z,55.20
2019-03-26T04:14:08.291Z,54.90
2019-03-26T04:24:11.187Z,54.50
2019-03-26T04:34:14.043Z,54.30
2019-03-26T04:44:16.748Z,54.00
2019-03-26T04:54:19.504Z,54.20
2019-03-26T05:04:22.558Z,54.40
2019-03-26T05:14:25.208Z,54.40
2019-03-26T05:24:28.459Z,54.60
2019-03-26T05:34:30.622Z,54.30
2019-03-26T05:44:34.691Z,55.60
2019-03-26T05:54:37.509Z,56.00
2019-03-26T06:04:40.631Z,56.10
2019-03-26T06:14:43.650Z,56.20
2019-03-26T06:24:46.182Z,55.70
2019-03-26T06:34:49.605Z,54.30
2019-03-26T06:44:52.121Z,52.50
2019-03-26T06:54:55.954Z,51.90
2019-03-26T07:05:00.475Z,51.30
2019-03-26T07:15:04.478Z,50.60
2019-03-26T07:25:07.906Z,50.40
2019-03-26T07:35:10.789Z,50.20
2019-03-26T07:45:14.626Z,50.20
2019-03-26T07:55:17.268Z,49.80
2019-03-26T08:05:29.260Z,49.40
2019-03-26T08:15:24.389Z,49.50
2019-03-26T08:25:28.300Z,49.50
2019-03-26T08:35:30.790Z,49.60
2019-03-26T08:45:34.498Z,49.40
2019-03-26T08:55:37.691Z,48.10
2019-03-26T09:05:40.391Z,48.00
2019-03-26T09:15:43.430Z,47.50
2019-03-26T09:25:46.218Z,47.10
2019-03-26T09:35:49.017Z,46.70
2019-03-26T09:45:51.647Z,46.20
2019-03-26T09:55:54.682Z,46.30
2019-03-26T10:05:57.439Z,46.40
2019-03-26T10:16:00.124Z,47.30
2019-03-26T10:26:03.145Z,46.80
2019-03-26T10:36:04.825Z,45.10
2019-03-26T10:46:07.338Z,44.40
2019-03-26T10:56:09.975Z,45.40
2019-03-26T11:06:12.629Z,46.50
2019-03-26T11:16:15.579Z,45.80
2019-03-26T11:26:18.443Z,44.60
2019-03-26T11:36:21.250Z,43.10
2019-03-26T11:46:23.951Z,41.90
2019-03-26T11:56:27.680Z,41.30
2019-03-26T12:06:30.660Z,41.10
2019-03-26T12:16:33.219Z,42.00
2019-03-26T12:26:36.959Z,43.00
2019-03-26T12:36:40.423Z,42.40
2019-03-26T12:46:43.277Z,41.60
2019-03-26T12:56:48.357Z,42.40
2019-03-26T13:06:50.930Z,41.60
2019-03-26T13:16:53.678Z,42.20
2019-03-26T13:26:56.263Z,42.00
2019-03-26T13:36:58.874Z,43.70
2019-03-26T13:47:01.655Z,43.10
2019-03-26T13:57:04.234Z,44.10
2019-03-26T14:07:07.354Z,45.80
2019-03-26T14:17:09.318Z,47.10
2019-03-26T14:27:11.850Z,47.60
2019-03-26T14:37:33.793Z,46.50
2019-03-26T14:47:37.906Z,47.30
2019-03-26T14:57:40.629Z,47.80
2019-03-26T15:07:43.209Z,48.10
2019-03-26T15:17:45.852Z,48.30
2019-03-26T15:27:48.592Z,48.20
2019-03-26T15:37:51.102Z,48.00
2019-03-26T15:47:53.744Z,47.30
2019-03-26T15:57:59.740Z,47.40
2019-03-26T16:08:01.457Z,47.50
2019-03-26T16:18:04.038Z,47.60
2019-03-26T16:28:06.708Z,48.00
2019-03-26T16:38:11.321Z,48.00
2019-03-26T16:48:13.788Z,48.00
2019-03-26T16:58:16.585Z,47.90
2019-03-26T17:08:22.485Z,48.50
2019-03-26T17:18:24.073Z,48.80
2019-03-26T17:28:27.024Z,48.40
2019-03-26T17:38:29.886Z,48.60
2019-03-26T17:48:32.711Z,48.70
2019-03-26T17:58:35.855Z,48.90
2019-03-26T18:08:37.635Z,49.30
2019-03-26T18:18:40.166Z,50.00
2019-03-26T18:28:42.950Z,49.90
2019-03-26T18:38:47.642Z,50.10
2019-03-26T18:48:50.331Z,50.30
2019-03-26T18:58:53.386Z,50.00
2019-03-26T19:08:56.102Z,50.30
2019-03-26T19:18:58.871Z,50.20
2019-03-26T19:29:01.767Z,50.40
2019-03-26T19:39:06.669Z,50.30
2019-03-26T19:49:09.356Z,50.30
2019-03-26T19:59:11.909Z,50.30
2019-03-26T20:09:15.067Z,50.80
2019-03-26T20:19:16.788Z,51.30
2019-03-26T20:29:19.752Z,52.20
2019-03-26T20:39:22.333Z,51.90
2019-03-26T20:49:24.861Z,52.00
2019-03-26T20:59:29.082Z,51.80
2019-03-26T21:09:31.894Z,52.90
2019-03-26T21:19:35.164Z,53.00
2019-03-26T21:29:39.338Z,53.30
2019-03-26T21:39:45.712Z,53.50
2019-03-26T21:49:48.714Z,53.50
2019-03-26T21:59:51.710Z,53.70
2019-03-26T22:09:54.914Z,54.50
2019-03-26T22:19:58.463Z,54.20
2019-03-26T22:30:01.104Z,54.40
2019-03-26T22:40:04.186Z,54.30
2019-03-26T22:50:07.578Z,54.50
2019-03-26T23:00:13.820Z,55.00
2019-03-26T23:10:17.709Z,55.00
2019-03-26T23:20:20.245Z,55.10
2019-03-26T23:30:22.923Z,55.40
2019-03-26T23:40:25.432Z,55.70
2019-03-26T23:50:28.048Z,55.80
